Time;durP1;ratioP1;P1;durP2;ratioP2;P2;SDS_P1;SDS_P2;PMS_P1;PMS_P2;Temp;Humidity;BMP_temperature;BMP_pressure;BME280_temperature;BME280_humidity;BME280_pressure;Samples;Min_cycle;Max_cycle;Signal;HPM_P1;HPM_P2
2023/07/26 00:00:22;;;;;;;1.70;0.90;;;17.50;51.00;;;;;;5044426;28;20061;-46
2023/07/26 00:02:51;;;;;;;2.28;0.90;;;17.50;51.00;;;;;;5044430;28;20052;-44
2023/07/26 00:05:18;;;;;;;4.38;1.00;;;17.50;51.10;;;;;;5045903;28;20084;-44
2023/07/26 00:07:45;;;;;;;2.00;1.00;;;17.50;51.10;;;;;;5044837;28;20061;-45
2023/07/26 00:10:12;;;;;;;2.33;1.13;;;17.50;51.20;;;;;;5045423;28;20053;-42
2023/07/26 00:12:40;;;;;;;2.08;1.13;;;17.40;51.20;;;;;;5047120;28;20068;-44
2023/07/26 00:15:08;;;;;;;1.33;0.80;;;17.40;51.20;;;;;;5045998;28;20060;-44
2023/07/26 00:17:36;;;;;;;5.32;1.20;;;17.40;51.20;;;;;;5044703;28;20424;-48
2023/07/26 00:20:05;;;;;;;3.08;1.10;;;17.40;51.20;;;;;;5044371;28;20053;-43
2023/07/26 00:22:33;;;;;;;2.00;0.95;;;17.40;51.20;;;;;;5045781;28;20052;-48
2023/07/26 00:25:00;;;;;;;4.75;1.45;;;17.40;51.20;;;;;;5046234;28;20052;-43
2023/07/26 00:27:27;;;;;;;4.03;1.00;;;17.40;51.30;;;;;;5045122;28;20052;-41
2023/07/26 00:29:55;;;;;;;2.03;0.95;;;17.30;51.30;;;;;;5046033;28;20060;-40
2023/07/26 00:32:22;;;;;;;2.78;1.08;;;17.40;51.40;;;;;;5043852;28;20428;-45
2023/07/26 00:34:49;;;;;;;3.00;1.00;;;17.30;51.40;;;;;;5044814;28;20056;-42
2023/07/26 00:37:18;;;;;;;2.78;1.20;;;17.30;51.40;;;;;;5046014;28;20421;-44
2023/07/26 00:39:45;;;;;;;2.27;0.93;;;17.40;51.50;;;;;;5045044;28;20055;-42
2023/07/26 00:42:17;;;;;;;0.88;0.68;;;17.40;51.50;;;;;;5044861;28;20053;-43
2023/07/26 00:44:44;;;;;;;1.83;1.10;;;17.40;51.50;;;;;;5044329;28;20059;-52
2023/07/26 00:47:12;;;;;;;4.50;1.13;;;17.40;51.60;;;;;;5043130;28;20057;-49
2023/07/26 00:49:39;;;;;;;2.63;0.90;;;17.40;51.60;;;;;;5044535;28;20072;-51
2023/07/26 00:52:08;;;;;;;4.40;1.30;;;17.40;51.60;;;;;;5045748;28;20052;-52
2023/07/26 00:54:36;;;;;;;1.55;1.15;;;17.40;51.70;;;;;;5043639;28;20048;-53
2023/07/26 00:57:04;;;;;;;3.80;1.27;;;17.40;51.80;;;;;;5037700;28;20052;-52
2023/07/26 00:59:31;;;;;;;3.47;1.27;;;17.40;51.90;;;;;;5044988;28;20056;-50
2023/07/26 01:01:58;;;;;;;2.22;1.13;;;17.40;52.00;;;;;;5045094;28;20049;-47
2023/07/26 01:04:26;;;;;;;4.40;1.20;;;17.50;52.10;;;;;;5040285;22;20408;-86
2023/07/26 01:07:07;;;;;;;3.22;1.10;;;17.50;52.10;;;;;;5028765;28;20079;-86
2023/07/26 01:09:46;;;;;;;1.83;1.17;;;17.50;52.10;;;;;;5022773;28;20420;-86
2023/07/26 01:12:19;;;;;;;2.55;1.13;;;17.50;52.10;;;;;;5022480;28;20359;-85
2023/07/26 01:14:54;;;;;;;3.07;1.40;;;17.50;52.10;;;;;;5023808;28;20067;-85
2023/07/26 01:17:22;;;;;;;2.85;1.00;;;17.50;52.10;;;;;;5023660;28;20500;-86
2023/07/26 01:19:49;;;;;;;3.63;1.20;;;17.50;52.00;;;;;;5023798;28;20499;-85
2023/07/26 01:22:18;;;;;;;2.58;1.30;;;17.50;52.00;;;;;;5023040;28;20083;-85
2023/07/26 01:24:45;;;;;;;4.45;1.17;;;17.50;52.00;;;;;;5022289;28;20054;-85
2023/07/26 01:27:12;;;;;;;4.05;1.10;;;17.50;51.90;;;;;;5021837;28;20497;-86
2023/07/26 01:29:39;;;;;;;1.63;0.90;;;17.60;52.00;;;;;;5024212;28;20072;-85
2023/07/26 01:32:10;;;;;;;1.90;0.80;;;17.60;52.10;;;;;;5022314;28;20076;-86
2023/07/26 01:34:37;;;;;;;1.70;0.60;;;17.60;52.20;;;;;;5022884;28;20049;-86
2023/07/26 01:37:06;;;;;;;2.42;1.08;;;17.60;52.20;;;;;;5022859;28;20061;-86
2023/07/26 01:39:34;;;;;;;3.42;1.00;;;17.60;52.20;;;;;;5022141;28;20084;-85
2023/07/26 01:42:02;;;;;;;2.90;0.90;;;17.70;52.20;;;;;;5027096;28;20045;-85
2023/07/26 01:44:36;;;;;;;1.65;0.88;;;17.70;52.20;;;;;;5023531;28;20416;-86
2023/07/26 01:47:03;;;;;;;2.60;1.02;;;17.70;52.20;;;;;;5023267;28;20064;-86
2023/07/26 01:49:31;;;;;;;2.38;0.90;;;17.70;52.10;;;;;;5022828;28;20084;-86
2023/07/26 01:51:58;;;;;;;2.42;1.08;;;17.70;52.20;;;;;;5023224;28;20056;-85
2023/07/26 01:54:26;;;;;;;6.45;1.30;;;17.70;52.30;;;;;;5022499;28;20060;-85
2023/07/26 01:56:54;;;;;;;1.77;1.20;;;17.70;52.40;;;;;;5020662;28;20054;-86
2023/07/26 01:59:21;;;;;;;5.03;1.20;;;17.70;52.40;;;;;;5022449;28;20049;-86
2023/07/26 02:01:49;;;;;;;2.00;1.05;;;17.70;52.40;;;;;;5024265;28;20048;-86
2023/07/26 02:04:16;;;;;;;2.35;1.40;;;17.70;52.40;;;;;;5021217;28;20049;-86
2023/07/26 02:06:43;;;;;;;3.20;1.50;;;17.70;52.40;;;;;;5021960;28;20417;-86
2023/07/26 02:09:10;;;;;;;2.17;0.90;;;17.70;52.50;;;;;;5021700;28;20065;-85
2023/07/26 02:11:38;;;;;;;3.78;1.10;;;17.70;52.50;;;;;;5021198;28;20052;-85
2023/07/26 02:14:06;;;;;;;2.90;1.27;;;17.60;52.50;;;;;;5022156;28;20053;-86
2023/07/26 02:16:33;;;;;;;5.03;1.23;;;17.60;52.60;;;;;;5021335;28;20049;-86
2023/07/26 02:19:01;;;;;;;3.08;1.80;;;17.60;52.70;;;;;;5024731;28;20061;-86
2023/07/26 02:21:28;;;;;;;4.93;1.40;;;17.60;52.70;;;;;;5021981;28;20497;-86
2023/07/26 02:23:55;;;;;;;2.35;1.30;;;17.50;52.80;;;;;;5021707;28;20045;-85
2023/07/26 02:26:22;;;;;;;2.75;1.30;;;17.50;52.80;;;;;;5020270;28;20493;-86
2023/07/26 02:28:50;;;;;;;4.35;1.40;;;17.50;52.80;;;;;;5021712;28;20053;-85
2023/07/26 02:31:18;;;;;;;1.73;1.20;;;17.50;52.80;;;;;;5021610;28;20072;-86
2023/07/26 02:33:46;;;;;;;3.42;1.52;;;17.50;52.90;;;;;;5021997;28;20057;-85
2023/07/26 02:36:13;;;;;;;4.72;1.60;;;17.50;52.90;;;;;;5022227;28;20053;-85
2023/07/26 02:38:40;;;;;;;2.05;1.00;;;17.50;53.00;;;;;;5022044;28;20053;-86
2023/07/26 02:41:07;;;;;;;1.67;1.55;;;17.40;53.00;;;;;;5020346;28;20057;-86
2023/07/26 02:43:35;;;;;;;3.35;1.33;;;17.40;53.00;;;;;;5022183;28;20057;-85
2023/07/26 02:46:02;;;;;;;2.00;1.20;;;17.40;53.00;;;;;;5021629;28;20072;-86
2023/07/26 02:48:30;;;;;;;3.58;1.30;;;17.40;53.00;;;;;;5022283;28;20057;-86
2023/07/26 02:50:58;;;;;;;2.80;1.60;;;17.40;53.10;;;;;;5021392;28;20058;-86
2023/07/26 02:53:25;;;;;;;3.13;1.45;;;17.40;53.10;;;;;;5022003;28;20481;-85
2023/07/26 02:55:52;;;;;;;4.05;1.30;;;17.40;53.10;;;;;;5019272;28;20458;-86
2023/07/26 02:58:20;;;;;;;3.53;1.52;;;17.40;53.00;;;;;;5021045;28;20057;-86
2023/07/26 03:00:51;;;;;;;1.25;0.90;;;17.30;53.00;;;;;;5021916;28;20512;-85
2023/07/26 03:03:19;;;;;;;2.80;1.20;;;17.30;53.00;;;;;;5020937;28;20493;-85
2023/07/26 03:05:47;;;;;;;6.97;1.40;;;17.40;53.00;;;;;;5021708;28;20427;-85
2023/07/26 03:08:15;;;;;;;1.83;1.23;;;17.40;53.00;;;;;;5021523;28;20057;-85
2023/07/26 03:10:42;;;;;;;2.15;1.23;;;17.40;53.00;;;;;;5021242;28;20060;-85
2023/07/26 03:13:09;;;;;;;1.85;1.13;;;17.40;53.00;;;;;;5021511;28;20057;-85
2023/07/26 03:15:39;;;;;;;2.88;1.30;;;17.30;53.00;;;;;;5020974;28;20064;-85
2023/07/26 03:18:06;;;;;;;4.50;1.30;;;17.30;53.00;;;;;;5025309;28;20060;-85
2023/07/26 03:20:34;;;;;;;2.53;1.30;;;17.40;53.00;;;;;;5025097;28;20049;-85
2023/07/26 03:23:02;;;;;;;5.25;1.33;;;17.30;53.00;;;;;;5025721;28;20054;-86
2023/07/26 03:25:30;;;;;;;1.77;1.10;;;17.30;53.00;;;;;;5025335;28;20049;-86
2023/07/26 03:27:57;;;;;;;3.72;1.42;;;17.30;53.00;;;;;;5025703;28;20057;-85
2023/07/26 03:30:24;;;;;;;2.03;1.00;;;17.30;53.00;;;;;;5025266;28;20436;-87
2023/07/26 03:32:52;;;;;;;1.83;1.17;;;17.30;53.00;;;;;;5025511;28;20061;-85
2023/07/26 03:35:19;;;;;;;1.83;1.10;;;17.30;53.00;;;;;;5024945;28;20057;-87
2023/07/26 03:37:46;;;;;;;3.28;1.23;;;17.30;53.00;;;;;;5023979;28;20481;-84
2023/07/26 03:40:15;;;;;;;3.15;1.48;;;17.30;53.00;;;;;;5024463;28;20061;-86
2023/07/26 03:42:42;;;;;;;1.88;1.10;;;17.30;53.00;;;;;;5025096;28;20508;-86
2023/07/26 03:45:10;;;;;;;4.38;1.23;;;17.30;53.00;;;;;;5025764;28;20397;-85
2023/07/26 03:47:37;;;;;;;4.10;1.20;;;17.30;53.00;;;;;;5024607;28;20045;-85
2023/07/26 03:50:05;;;;;;;3.30;1.38;;;17.30;53.00;;;;;;5024719;28;20060;-86
2023/07/26 03:52:33;;;;;;;2.55;1.30;;;17.30;53.00;;;;;;5023801;28;20042;-85
2023/07/26 03:55:00;;;;;;;1.35;1.00;;;17.30;53.10;;;;;;5024586;28;20049;-85
2023/07/26 03:57:29;;;;;;;1.88;0.88;;;17.30;53.10;;;;;;5023117;28;20057;-88
2023/07/26 03:59:56;;;;;;;2.58;1.10;;;17.30;53.10;;;;;;5025130;28;20076;-85
2023/07/26 04:05:09;;;;;;;3.17;1.25;;;17.30;53.10;;;;;;5233256;22;20427;-85
2023/07/26 04:07:37;;;;;;;2.28;0.93;;;17.30;53.10;;;;;;5064165;28;20056;-84
2023/07/26 04:10:05;;;;;;;2.65;1.30;;;17.30;53.00;;;;;;5063747;28;20056;-85
2023/07/26 04:12:34;;;;;;;4.28;1.17;;;17.30;53.00;;;;;;5063822;28;20044;-85
2023/07/26 04:15:01;;;;;;;2.55;1.17;;;17.30;53.00;;;;;;5063758;28;20061;-85
2023/07/26 04:17:42;;;;;;;2.60;1.27;;;17.30;53.00;;;;;;5071932;28;20055;-85
2023/07/26 04:20:10;;;;;;;3.38;1.27;;;17.30;53.00;;;;;;5064724;28;20067;-85
2023/07/26 04:22:43;;;;;;;3.38;1.35;;;17.30;53.00;;;;;;5064854;28;20048;-85
2023/07/26 04:25:11;;;;;;;2.08;0.90;;;17.30;53.00;;;;;;5064827;28;20067;-85
2023/07/26 04:27:39;;;;;;;1.67;1.15;;;17.30;53.00;;;;;;5062770;28;20506;-86
2023/07/26 04:30:08;;;;;;;3.10;1.27;;;17.30;53.00;;;;;;5062810;28;20408;-85
2023/07/26 04:32:35;;;;;;;15.27;8.43;;;17.30;52.90;;;;;;5064116;28;20068;-84
2023/07/26 04:35:03;;;;;;;5.32;2.67;;;17.30;52.90;;;;;;5065932;28;20416;-85
2023/07/26 04:37:30;;;;;;;4.25;2.00;;;17.30;52.90;;;;;;5064640;28;20052;-84
2023/07/26 04:39:58;;;;;;;2.83;1.25;;;17.30;52.90;;;;;;5024155;28;20517;-85
2023/07/26 04:42:25;;;;;;;2.58;1.27;;;17.30;52.90;;;;;;5001494;28;20065;-85
2023/07/26 04:44:53;;;;;;;4.00;1.40;;;17.30;52.90;;;;;;5003601;28;20422;-84
2023/07/26 04:47:22;;;;;;;3.30;1.17;;;17.30;52.90;;;;;;5004389;28;20058;-84
2023/07/26 04:49:49;;;;;;;2.20;1.33;;;17.30;53.00;;;;;;5003904;28;20050;-86
2023/07/26 04:52:17;;;;;;;1.20;1.10;;;17.30;53.00;;;;;;5005914;28;20050;-85
2023/07/26 04:54:44;;;;;;;61.97;28.42;;;17.30;53.00;;;;;;5003965;28;20057;-85
2023/07/26 04:57:11;;;;;;;33.28;18.08;;;17.30;53.00;;;;;;5002395;28;20052;-85
2023/07/26 04:59:38;;;;;;;6.90;3.28;;;17.30;53.10;;;;;;5003396;28;20057;-85
2023/07/26 05:02:07;;;;;;;2.38;1.50;;;17.30;53.10;;;;;;5003925;28;20593;-84
2023/07/26 05:04:36;;;;;;;2.25;1.33;;;17.30;53.10;;;;;;5002950;28;20065;-85
2023/07/26 05:07:04;;;;;;;1.63;1.17;;;17.30;53.10;;;;;;5003606;28;20062;-84
2023/07/26 05:09:31;;;;;;;2.10;0.98;;;17.30;53.10;;;;;;5005047;28;20054;-85
2023/07/26 05:11:58;;;;;;;2.08;1.20;;;17.30;53.10;;;;;;5003608;28;20057;-84
2023/07/26 05:14:26;;;;;;;2.97;1.00;;;17.30;53.10;;;;;;5003277;28;20062;-85
2023/07/26 05:16:53;;;;;;;4.45;1.40;;;17.30;53.10;;;;;;5003394;28;20520;-85
2023/07/26 05:19:25;;;;;;;4.25;1.30;;;17.40;53.20;;;;;;5002359;28;20057;-85
2023/07/26 05:21:55;;;;;;;1.55;1.27;;;17.40;53.30;;;;;;5008900;28;20060;-84
2023/07/26 05:24:32;;;;;;;3.47;1.40;;;17.40;53.30;;;;;;5007019;28;20062;-85
2023/07/26 05:27:01;;;;;;;1.10;0.80;;;17.40;53.60;;;;;;5003142;28;20058;-84
2023/07/26 05:30:10;;;;;;;1.90;1.10;;;17.40;53.30;;;;;;5001753;28;20489;-89
2023/07/26 05:33:03;;;;;;;1.63;1.17;;;17.50;53.50;;;;;;4958248;28;20054;-86
2023/07/26 05:35:34;;;;;;;3.08;1.10;;;17.50;53.50;;;;;;4961954;28;20064;-85
2023/07/26 05:38:15;;;;;;;3.70;1.20;;;17.60;53.50;;;;;;5003251;28;20058;-85
2023/07/26 05:44:03;;;;;;;1.65;1.27;;;17.60;53.40;;;;;;4944225;28;20062;-88
2023/07/26 05:47:12;;;;;;;2.28;1.13;;;17.70;53.50;;;;;;4943112;28;20055;-90
2023/07/26 05:49:46;;;;;;;2.33;1.35;;;17.70;53.70;;;;;;4996500;28;20080;-83
2023/07/26 05:53:16;;;;;;;2.17;1.30;;;17.80;53.60;;;;;;4999266;28;20061;-86
2023/07/26 05:55:59;;;;;;;2.20;1.27;;;17.80;53.60;;;;;;4992137;28;20437;-83
2023/07/26 06:01:27;;;;;;;2.50;1.48;;;17.90;53.20;;;;;;4943747;28;20101;-85
2023/07/26 06:04:01;;;;;;;2.28;1.33;;;18.00;53.10;;;;;;4997659;28;20042;-84
2023/07/26 06:06:49;;;;;;;2.90;1.35;;;18.00;53.00;;;;;;5001435;28;20069;-84
2023/07/26 06:09:16;;;;;;;5.38;2.05;;;18.00;53.00;;;;;;5001578;28;20508;-85
2023/07/26 06:11:48;;;;;;;2.65;1.30;;;18.00;52.90;;;;;;5001272;28;20064;-85
2023/07/26 06:14:16;;;;;;;3.63;1.75;;;18.10;52.90;;;;;;5002873;28;20050;-85
2023/07/26 06:16:43;;;;;;;2.67;1.70;;;18.10;53.00;;;;;;5002255;28;20057;-85
2023/07/26 06:19:31;;;;;;;2.35;1.45;;;18.10;53.00;;;;;;5001015;28;20058;-85
2023/07/26 06:21:58;;;;;;;3.63;1.70;;;18.20;53.00;;;;;;5001869;28;20057;-85
2023/07/26 06:24:26;;;;;;;1.90;1.63;;;18.20;52.90;;;;;;5001192;28;20049;-85
2023/07/26 06:26:55;;;;;;;2.78;1.73;;;18.20;52.90;;;;;;5001550;28;20064;-84
2023/07/26 06:29:22;;;;;;;3.20;1.73;;;18.20;52.90;;;;;;5002381;28;20054;-85
2023/07/26 06:31:50;;;;;;;6.85;1.90;;;18.20;52.90;;;;;;5008119;28;20065;-85
2023/07/26 06:34:17;;;;;;;4.78;1.80;;;18.20;52.90;;;;;;5002840;28;20050;-85
2023/07/26 06:36:46;;;;;;;2.95;1.70;;;18.20;52.90;;;;;;5002365;28;20049;-85
2023/07/26 06:39:18;;;;;;;5.15;2.15;;;18.20;52.70;;;;;;5001884;28;20511;-85
2023/07/26 06:41:48;;;;;;;3.25;1.77;;;18.20;52.70;;;;;;5000629;28;20060;-85
2023/07/26 06:44:17;;;;;;;3.15;1.88;;;18.20;52.70;;;;;;5006944;28;20409;-85
2023/07/26 06:46:44;;;;;;;2.13;1.70;;;18.30;52.70;;;;;;5001048;28;20058;-86
2023/07/26 06:49:11;;;;;;;3.10;2.00;;;18.30;52.70;;;;;;5002329;28;20061;-85
2023/07/26 06:51:38;;;;;;;3.15;2.10;;;18.30;52.60;;;;;;5006550;28;20053;-85
2023/07/26 06:54:06;;;;;;;4.00;2.22;;;18.40;52.70;;;;;;5006825;28;20126;-86
2023/07/26 06:56:33;;;;;;;5.00;2.20;;;18.40;52.70;;;;;;5008955;28;20046;-86
2023/07/26 06:59:01;;;;;;;5.63;2.55;;;18.40;52.50;;;;;;5005375;28;20065;-87
2023/07/26 07:01:30;;;;;;;4.00;2.45;;;18.50;52.40;;;;;;5002809;28;20065;-89
2023/07/26 07:04:03;;;;;;;4.05;1.98;;;18.50;52.30;;;;;;5005628;28;20050;-87
2023/07/26 07:06:30;;;;;;;4.32;2.40;;;18.60;52.20;;;;;;5006976;28;20053;-87
2023/07/26 07:08:58;;;;;;;5.40;2.83;;;18.70;52.30;;;;;;5006357;28;20058;-88
2023/07/26 07:11:25;;;;;;;6.35;2.70;;;18.70;52.40;;;;;;5002907;28;20053;-90
2023/07/26 07:13:53;;;;;;;6.07;2.20;;;18.80;52.40;;;;;;5006323;28;20409;-89
2023/07/26 07:16:20;;;;;;;9.38;2.97;;;18.80;52.40;;;;;;5004056;28;20511;-87
2023/07/26 07:18:49;;;;;;;7.38;3.17;;;18.90;52.00;;;;;;5005384;28;20635;-89
2023/07/26 07:21:16;;;;;;;4.97;2.95;;;18.90;51.90;;;;;;5011403;28;20057;-88
2023/07/26 07:23:43;;;;;;;4.70;3.05;;;19.00;51.40;;;;;;5011662;28;20209;-89
2023/07/26 07:26:11;;;;;;;2.95;1.73;;;19.00;51.50;;;;;;5004146;28;20064;-90
2023/07/26 07:28:38;;;;;;;4.00;2.45;;;19.10;51.70;;;;;;5005644;28;20053;-88
2023/07/26 07:31:06;;;;;;;5.78;2.33;;;19.00;51.50;;;;;;5005764;28;20068;-87
2023/07/26 07:33:33;;;;;;;3.60;2.08;;;19.10;51.40;;;;;;5010290;28;20069;-88
2023/07/26 07:36:04;;;;;;;5.05;2.33;;;19.10;51.50;;;;;;5005364;28;20069;-89
2023/07/26 07:38:31;;;;;;;7.55;2.80;;;19.20;51.60;;;;;;5005867;28;20057;-89
2023/07/26 07:40:59;;;;;;;9.38;2.80;;;19.20;51.50;;;;;;5003419;28;20061;-88
2023/07/26 07:43:26;;;;;;;5.65;2.35;;;19.30;51.50;;;;;;5005536;28;20520;-88
2023/07/26 07:45:54;;;;;;;3.25;2.00;;;19.30;51.50;;;;;;5005132;28;20054;-88
2023/07/26 07:48:21;;;;;;;3.83;1.85;;;19.40;51.60;;;;;;5004822;28;20494;-89
2023/07/26 07:50:54;;;;;;;3.10;1.73;;;19.40;51.60;;;;;;5004845;28;20739;-89
2023/07/26 07:53:31;;;;;;;4.97;2.13;;;19.40;51.50;;;;;;5004151;28;20058;-90
2023/07/26 07:55:58;;;;;;;4.22;2.35;;;19.50;51.40;;;;;;5003498;28;20058;-88
2023/07/26 07:58:26;;;;;;;3.00;1.80;;;19.50;51.40;;;;;;5005968;28;20061;-90
2023/07/26 08:00:57;;;;;;;5.95;2.65;;;19.60;51.30;;;;;;5005407;28;20072;-87
2023/07/26 08:03:59;;;;;;;2.63;1.90;;;19.60;51.20;;;;;;5011196;28;20057;-90
2023/07/26 08:06:27;;;;;;;3.97;1.85;;;19.60;51.10;;;;;;4923490;29;20059;-90
2023/07/26 08:08:56;;;;;;;10.13;2.47;;;19.60;51.00;;;;;;4924126;29;20058;-86
2023/07/26 08:11:23;;;;;;;4.30;2.30;;;19.70;51.00;;;;;;4922693;29;20056;-84
2023/07/26 08:13:51;;;;;;;4.00;2.28;;;19.70;51.00;;;;;;4925905;29;20056;-85
2023/07/26 08:16:18;;;;;;;5.47;2.25;;;19.70;50.90;;;;;;4928985;28;20051;-85
2023/07/26 08:18:46;;;;;;;6.55;2.28;;;19.70;50.90;;;;;;4925022;29;20055;-85
2023/07/26 08:21:13;;;;;;;3.08;2.08;;;19.80;50.80;;;;;;4925324;29;20066;-86
2023/07/26 08:23:41;;;;;;;4.53;2.80;;;19.80;50.90;;;;;;4925531;29;20056;-85
2023/07/26 08:26:10;;;;;;;8.20;2.72;;;19.80;51.40;;;;;;4930394;28;20058;-87
2023/07/26 08:28:37;;;;;;;4.78;2.20;;;19.90;50.50;;;;;;4925653;29;20062;-86
2023/07/26 08:31:04;;;;;;;4.72;2.03;;;19.90;50.60;;;;;;4922681;29;20062;-86
2023/07/26 08:33:32;;;;;;;3.58;2.17;;;19.90;50.60;;;;;;4926010;29;20066;-87
2023/07/26 08:35:59;;;;;;;5.78;2.40;;;19.90;50.70;;;;;;4923394;29;20059;-86
2023/07/26 08:38:26;;;;;;;7.10;2.97;;;20.00;50.50;;;;;;4923359;29;20412;-86
2023/07/26 08:40:55;;;;;;;4.30;2.60;;;20.00;50.20;;;;;;4923779;29;20047;-86
2023/07/26 08:43:27;;;;;;;5.57;2.65;;;20.10;49.90;;;;;;4924112;29;20079;-85
2023/07/26 08:45:55;;;;;;;4.10;2.17;;;20.10;50.00;;;;;;4924367;29;20059;-87
2023/07/26 08:48:23;;;;;;;5.47;2.50;;;20.10;49.90;;;;;;4924943;29;20488;-86
2023/07/26 08:50:51;;;;;;;7.47;3.20;;;20.20;49.80;;;;;;4923839;29;20519;-88
2023/07/26 08:53:19;;;;;;;7.65;2.75;;;20.20;49.20;;;;;;4930568;28;20055;-86
2023/07/26 08:55:49;;;;;;;4.60;2.30;;;20.30;49.30;;;;;;4922375;29;20056;-86
2023/07/26 08:58:20;;;;;;;4.25;2.30;;;20.30;48.90;;;;;;4925010;29;20051;-86
2023/07/26 09:00:49;;;;;;;4.10;2.38;;;20.30;49.10;;;;;;4925526;29;20071;-86
2023/07/26 09:03:17;;;;;;;4.35;2.00;;;20.30;49.30;;;;;;4925253;29;20059;-85
2023/07/26 09:05:45;;;;;;;4.22;2.33;;;20.40;49.30;;;;;;4923817;29;20068;-85
2023/07/26 09:08:14;;;;;;;4.70;2.60;;;20.50;49.10;;;;;;4924882;29;20412;-86
2023/07/26 09:10:41;;;;;;;4.07;2.28;;;20.50;48.90;;;;;;4923818;29;20530;-86
2023/07/26 09:13:09;;;;;;;5.25;3.30;;;20.50;48.60;;;;;;4949905;23;20049;-86
2023/07/26 09:15:38;;;;;;;7.32;2.78;;;20.60;48.50;;;;;;4982370;28;20062;-86
2023/07/26 09:18:10;;;;;;;4.93;2.22;;;20.70;48.30;;;;;;4982839;28;20076;-86
2023/07/26 09:20:38;;;;;;;6.53;2.50;;;20.70;48.30;;;;;;4982694;28;20057;-89
2023/07/26 09:23:07;;;;;;;4.88;2.40;;;20.80;48.00;;;;;;4983012;28;20509;-87
2023/07/26 09:25:37;;;;;;;3.67;2.15;;;20.80;47.70;;;;;;4984066;28;20577;-89
2023/07/26 09:28:05;;;;;;;4.68;2.17;;;20.80;47.70;;;;;;4981875;28;20506;-87
2023/07/26 09:30:36;;;;;;;3.67;2.15;;;20.80;47.90;;;;;;4982174;28;20517;-93
2023/07/26 09:33:05;;;;;;;7.40;2.45;;;20.80;48.00;;;;;;4982238;28;20058;-90
2023/07/26 09:35:41;;;;;;;3.78;2.17;;;20.70;48.30;;;;;;4980176;28;20054;-87
2023/07/26 09:38:12;;;;;;;3.65;1.77;;;20.60;48.40;;;;;;4980930;28;20620;-88
2023/07/26 09:40:40;;;;;;;7.03;2.50;;;20.50;48.90;;;;;;4981682;28;20051;-87
2023/07/26 09:43:07;;;;;;;3.47;2.08;;;20.50;49.20;;;;;;4982101;28;20050;-87
2023/07/26 09:45:36;;;;;;;4.15;1.83;;;20.40;49.50;;;;;;4982690;28;20906;-89
2023/07/26 09:48:07;;;;;;;5.95;2.40;;;20.30;49.90;;;;;;4981323;28;20046;-86
2023/07/26 09:50:36;;;;;;;5.43;2.50;;;20.30;50.70;;;;;;4980879;28;20050;-88
2023/07/26 09:53:05;;;;;;;5.43;2.70;;;20.30;50.90;;;;;;4984801;28;20047;-86
2023/07/26 09:55:33;;;;;;;5.03;2.70;;;20.30;51.80;;;;;;4980902;28;20054;-87
2023/07/26 09:58:04;;;;;;;3.78;2.28;;;20.30;52.20;;;;;;4981640;28;20069;-88
2023/07/26 10:00:45;;;;;;;4.00;2.30;;;20.30;52.20;;;;;;4979768;28;20061;-87
2023/07/26 10:03:16;;;;;;;5.07;2.03;;;20.30;52.40;;;;;;4979419;28;20050;-88
2023/07/26 10:05:48;;;;;;;6.05;2.45;;;20.30;52.40;;;;;;4972212;23;20522;-88
2023/07/26 10:08:20;;;;;;;5.00;2.55;;;20.30;52.40;;;;;;4956608;28;20062;-87
2023/07/26 10:10:48;;;;;;;3.85;2.30;;;20.30;52.50;;;;;;4954452;28;20058;-88
2023/07/26 10:13:18;;;;;;;6.38;2.65;;;20.30;52.50;;;;;;4956425;28;20074;-87
2023/07/26 10:18:50;;;;;;;5.80;2.53;;;20.40;52.80;;;;;;4955637;28;20047;-87
2023/07/26 10:21:21;;;;;;;3.50;2.22;;;20.40;53.00;;;;;;4958742;28;20050;-87
2023/07/26 10:23:50;;;;;;;4.90;2.60;;;20.40;53.30;;;;;;4961022;28;20410;-88
2023/07/26 10:26:18;;;;;;;3.92;2.03;;;20.50;53.40;;;;;;4953442;28;20047;-87
2023/07/26 10:28:46;;;;;;;4.43;2.28;;;20.50;53.40;;;;;;4954461;28;20474;-87
2023/07/26 10:31:38;;;;;;;4.30;2.20;;;20.60;53.50;;;;;;4953615;28;20143;-83
2023/07/26 10:34:07;;;;;;;5.22;1.92;;;20.60;53.40;;;;;;4954879;28;20077;-84
2023/07/26 10:36:38;;;;;;;4.25;2.10;;;20.60;53.30;;;;;;4942524;28;20054;-84
2023/07/26 10:39:08;;;;;;;5.82;2.22;;;20.70;53.40;;;;;;4955589;28;20058;-83
2023/07/26 10:41:36;;;;;;;5.18;2.40;;;20.70;53.50;;;;;;4956830;28;20066;-85
2023/07/26 10:44:06;;;;;;;5.43;2.53;;;20.70;53.80;;;;;;4957598;28;20059;-85
2023/07/26 10:46:50;;;;;;;3.10;2.08;;;20.70;54.10;;;;;;4960574;28;20059;-83
2023/07/26 10:49:20;;;;;;;3.50;2.17;;;20.80;54.40;;;;;;4959996;28;20069;-85
2023/07/26 10:51:56;;;;;;;4.68;2.30;;;20.80;54.20;;;;;;4961447;28;20059;-83
2023/07/26 10:54:39;;;;;;;3.97;1.85;;;20.80;54.70;;;;;;4957480;28;20396;-87
2023/07/26 10:57:31;;;;;;;5.18;2.20;;;20.90;54.30;;;;;;4959871;28;20430;-84
2023/07/26 11:00:00;;;;;;;4.68;2.38;;;20.90;54.00;;;;;;4960251;28;20054;-84
2023/07/26 11:02:43;;;;;;;6.28;2.65;;;21.00;54.70;;;;;;4956426;28;20058;-85
2023/07/26 11:05:44;;;;;;;;;;;;;;;;;;;;;
2023/07/26 11:08:13;;;;;;;5.20;2.10;;;20.90;54.00;;;;;;4959291;28;20065;-84
2023/07/26 11:10:51;;;;;;;3.85;2.00;;;21.00;53.00;;;;;;4960610;28;20066;-86
2023/07/26 11:13:27;;;;;;;4.72;2.25;;;21.00;51.90;;;;;;4959816;28;21222;-84
2023/07/26 11:15:54;;;;;;;3.92;2.35;;;21.00;51.20;;;;;;4960997;28;20055;-86
2023/07/26 11:18:22;;;;;;;4.35;2.35;;;21.00;51.20;;;;;;4960711;28;20426;-84
2023/07/26 11:20:51;;;;;;;4.97;2.30;;;21.00;51.30;;;;;;4961225;28;20522;-86
2023/07/26 11:23:21;;;;;;;2.97;2.05;;;21.00;51.20;;;;;;4955472;28;20058;-85
2023/07/26 11:28:18;;;;;;;3.67;2.00;;;20.90;51.20;;;;;;4977970;28;20054;-53
2023/07/26 11:30:48;;;;;;;4.15;2.28;;;21.00;51.30;;;;;;4979812;28;20050;-51
2023/07/26 11:33:29;;;;;;;4.07;2.42;;;20.90;51.30;;;;;;4980725;28;20062;-54
2023/07/26 11:35:57;;;;;;;3.67;2.28;;;21.00;51.00;;;;;;4977511;28;20677;-53
2023/07/26 11:38:26;;;;;;;5.03;2.00;;;20.90;51.00;;;;;;4982483;28;20076;-55
2023/07/26 11:40:55;;;;;;;2.78;2.25;;;21.00;51.40;;;;;;4982519;28;20057;-45
2023/07/26 11:43:25;;;;;;;3.78;2.58;;;21.00;50.70;;;;;;4983675;28;20525;-47
2023/07/26 11:45:52;;;;;;;8.88;2.97;;;21.00;50.20;;;;;;4984151;28;20065;-50
2023/07/26 11:48:20;;;;;;;4.70;2.60;;;21.00;48.80;;;;;;4984507;28;20055;-52
2023/07/26 11:50:47;;;;;;;9.65;3.95;;;21.00;49.80;;;;;;4983146;28;20061;-46
2023/07/26 11:53:15;;;;;;;9.18;3.55;;;20.90;50.50;;;;;;4983727;28;20450;-47
2023/07/26 11:55:44;;;;;;;6.68;3.53;;;20.60;52.60;;;;;;4983258;28;20427;-48
2023/07/26 11:58:12;;;;;;;7.63;3.63;;;20.20;52.90;;;;;;4984168;28;20058;-44
2023/07/26 12:00:43;;;;;;;6.53;3.40;;;19.80;53.00;;;;;;4982406;28;20062;-51
2023/07/26 12:03:11;;;;;;;3.80;2.42;;;19.30;53.60;;;;;;4984898;28;20422;-50
2023/07/26 12:05:42;;;;;;;5.00;2.83;;;18.80;53.80;;;;;;4984223;28;20050;-50
2023/07/26 12:08:09;;;;;;;5.20;2.60;;;18.40;54.60;;;;;;4981991;28;20062;-47
2023/07/26 12:10:38;;;;;;;6.22;3.13;;;18.10;55.50;;;;;;4983776;28;20497;-56
2023/07/26 12:13:08;;;;;;;5.80;2.80;;;17.80;56.10;;;;;;4976325;28;20423;-48
2023/07/26 12:15:52;;;;;;;5.68;2.85;;;17.50;57.00;;;;;;4977655;28;20053;-56
2023/07/26 12:18:21;;;;;;;3.97;2.50;;;17.30;58.00;;;;;;4980437;28;20061;-50
2023/07/26 12:20:58;;;;;;;3.85;2.35;;;17.10;58.40;;;;;;4981345;28;20046;-55
2023/07/26 12:23:26;;;;;;;5.63;2.80;;;17.00;59.30;;;;;;4983692;28;20050;-49
2023/07/26 12:25:56;;;;;;;5.40;2.88;;;16.90;59.60;;;;;;4982228;28;20050;-54
2023/07/26 12:28:25;;;;;;;6.28;3.05;;;16.80;60.50;;;;;;4982489;28;20494;-51
2023/07/26 12:30:54;;;;;;;4.43;2.63;;;16.80;61.40;;;;;;4983415;28;20402;-52
2023/07/26 12:33:21;;;;;;;4.30;3.10;;;16.80;62.30;;;;;;4983922;28;20054;-46
2023/07/26 12:35:52;;;;;;;6.97;2.63;;;16.80;63.10;;;;;;4983109;28;20050;-51
2023/07/26 12:38:19;;;;;;;4.53;2.95;;;16.80;63.70;;;;;;4977761;28;20498;-52
2023/07/26 12:40:47;;;;;;;3.92;2.22;;;16.90;64.50;;;;;;4981376;28;20058;-56
2023/07/26 12:43:22;;;;;;;3.38;2.38;;;17.00;65.20;;;;;;4982878;28;20058;-46
2023/07/26 12:45:51;;;;;;;2.90;2.17;;;17.10;66.20;;;;;;4983592;28;20050;-52
2023/07/26 12:48:19;;;;;;;3.67;2.42;;;17.20;66.10;;;;;;4981646;28;20065;-49
2023/07/26 12:50:46;;;;;;;3.35;2.45;;;17.30;66.20;;;;;;4983195;28;20060;-54
2023/07/26 12:53:14;;;;;;;7.63;3.38;;;17.30;66.30;;;;;;4978298;28;20058;-48
2023/07/26 12:55:41;;;;;;;4.13;2.80;;;17.40;66.40;;;;;;4981767;28;20051;-56
2023/07/26 12:58:08;;;;;;;3.22;2.45;;;17.50;66.40;;;;;;4983340;28;20061;-56
2023/07/26 13:00:36;;;;;;;4.15;2.90;;;17.50;66.20;;;;;;4982381;28;20418;-47
2023/07/26 13:03:05;;;;;;;4.47;3.33;;;17.60;66.40;;;;;;4982979;28;20061;-50
2023/07/26 13:05:32;;;;;;;3.67;2.78;;;17.70;66.80;;;;;;4981680;28;20058;-46
2023/07/26 13:08:00;;;;;;;4.57;2.63;;;17.70;66.90;;;;;;4981178;28;20050;-55
2023/07/26 13:10:29;;;;;;;4.30;2.88;;;17.80;67.20;;;;;;4980292;28;20065;-52
2023/07/26 13:12:56;;;;;;;5.60;3.20;;;17.80;67.10;;;;;;4982897;28;20051;-48
2023/07/26 13:15:24;;;;;;;5.00;3.28;;;17.90;67.00;;;;;;4982273;28;20138;-48